createdAt,value
2022-10-23T00:00:08.586Z,79.53
2022-10-23T00:00:20.628Z,79.36
2022-10-23T00:00:33.102Z,78.94
2022-10-23T00:00:45.206Z,78.89
2022-10-23T00:00:57.161Z,78.95
2022-10-23T00:01:17.711Z,79.10
2022-10-23T00:01:41.004Z,79.52
2022-10-23T00:01:52.943Z,79.65
2022-10-23T00:02:04.998Z,79.85
2022-10-23T00:02:17.048Z,79.70
2022-10-23T00:02:29.171Z,79.55
2022-10-23T00:02:41.671Z,79.33
2022-10-23T00:02:54.789Z,79.25
2022-10-23T00:03:06.827Z,79.08
2022-10-23T00:03:18.772Z,79.15
2022-10-23T00:03:30.708Z,79.14
2022-10-23T00:03:43.160Z,79.05
2022-10-23T00:04:00.215Z,79.58
2022-10-23T00:04:21.610Z,79.62
2022-10-23T00:04:33.550Z,79.12
2022-10-23T00:04:45.475Z,79.33
2022-10-23T00:04:57.383Z,79.33
2022-10-23T00:05:09.440Z,79.04
2022-10-23T00:05:22.590Z,79.66
2022-10-23T00:05:34.524Z,79.68
2022-10-23T00:05:46.474Z,79.37
2022-10-23T00:05:58.465Z,79.57
2022-10-23T00:06:11.653Z,79.50
2022-10-23T00:06:25.005Z,79.51
2022-10-23T00:06:37.150Z,79.51
2022-10-23T00:06:49.668Z,79.48
2022-10-23T00:07:01.583Z,79.32
2022-10-23T00:07:13.536Z,79.50
2022-10-23T00:07:25.562Z,79.40
2022-10-23T00:07:37.682Z,79.32
2022-10-23T00:07:54.714Z,79.22
2022-10-23T00:08:07.082Z,78.95
2022-10-23T00:08:19.016Z,79.11
2022-10-23T00:08:31.050Z,79.02
2022-10-23T00:08:43.727Z,79.19
2022-10-23T00:08:56.371Z,79.05
2022-10-23T00:09:09.731Z,78.97
2022-10-23T00:09:23.676Z,78.76
2022-10-23T00:09:35.630Z,79.14
2022-10-23T00:09:47.600Z,79.11
2022-10-23T00:09:59.526Z,79.02
2022-10-23T00:10:11.652Z,79.31
2022-10-23T00:10:25.368Z,79.64
2022-10-23T00:10:41.859Z,79.70
2022-10-23T00:10:53.798Z,79.69
2022-10-23T00:11:21.904Z,79.73
2022-10-23T00:11:35.177Z,79.82
2022-10-23T00:11:48.550Z,79.73
2022-10-23T00:12:00.476Z,80.01
2022-10-23T00:12:12.424Z,79.73
2022-10-23T00:12:24.356Z,80.00
2022-10-23T00:12:36.316Z,79.63
2022-10-23T00:12:49.253Z,79.50
2022-10-23T00:13:01.317Z,79.76
2022-10-23T00:13:13.246Z,79.84
2022-10-23T00:13:25.254Z,79.47
2022-10-23T00:13:37.714Z,79.44
2022-10-23T00:13:50.763Z,79.62
2022-10-23T00:14:05.882Z,79.32
2022-10-23T00:14:21.266Z,79.35
2022-10-23T00:14:33.299Z,79.29
2022-10-23T00:14:45.238Z,79.30
2022-10-23T00:14:57.216Z,79.21
2022-10-23T00:15:09.590Z,79.18
2022-10-23T00:15:23.035Z,79.25
2022-10-23T00:15:36.520Z,79.25
2022-10-23T00:15:48.443Z,79.14
2022-10-23T00:16:00.685Z,79.20
2022-10-23T00:16:12.653Z,79.23
2022-10-23T00:16:24.593Z,79.05
2022-10-23T00:16:37.041Z,79.13
2022-10-23T00:16:48.968Z,79.32
2022-10-23T00:17:00.882Z,79.16
2022-10-23T00:17:12.936Z,78.67
2022-10-23T00:17:24.945Z,78.66
2022-10-23T00:17:36.853Z,78.65
2022-10-23T00:17:49.394Z,78.42
2022-10-23T00:18:01.461Z,79.00
2022-10-23T00:18:13.422Z,78.94
2022-10-23T00:18:25.353Z,78.97
2022-10-23T00:18:38.237Z,79.08
2022-10-23T00:18:50.743Z,78.94
2022-10-23T00:19:03.502Z,78.90
2022-10-23T00:19:15.599Z,78.72
2022-10-23T00:19:27.498Z,79.10
2022-10-23T00:19:39.447Z,79.03
2022-10-23T00:19:51.378Z,79.13
2022-10-23T00:20:04.317Z,79.25
2022-10-23T00:20:17.055Z,79.17
2022-10-23T00:20:28.992Z,79.41
2022-10-23T00:20:40.886Z,79.47
2022-10-23T00:20:52.849Z,79.63
2022-10-23T00:21:06.605Z,79.48
2022-10-23T00:21:18.607Z,79.28
2022-10-23T00:21:30.576Z,79.30
2022-10-23T00:21:42.771Z,79.29
2022-10-23T00:21:54.719Z,79.33
2022-10-23T00:22:08.547Z,79.65
2022-10-23T00:22:20.755Z,79.62
2022-10-23T00:22:32.696Z,79.51
2022-10-23T00:22:44.875Z,79.55
2022-10-23T00:22:56.767Z,79.46
2022-10-23T00:23:08.730Z,79.63
2022-10-23T00:23:20.692Z,79.78
2022-10-23T00:23:32.656Z,79.61
2022-10-23T00:23:45.305Z,79.78
2022-10-23T00:23:57.418Z,79.66
2022-10-23T00:24:26.405Z,79.40
2022-10-23T00:24:38.285Z,79.45
2022-10-23T00:24:50.282Z,79.42
2022-10-23T00:25:06.195Z,79.43
2022-10-23T00:25:18.577Z,79.55
2022-10-23T00:25:30.586Z,79.54
2022-10-23T00:25:42.639Z,79.40
2022-10-23T00:25:54.602Z,79.50
2022-10-23T00:26:08.206Z,79.50
2022-10-23T00:26:20.589Z,79.42
2022-10-23T00:26:32.614Z,79.50
2022-10-23T00:26:44.793Z,79.25
2022-10-23T00:26:56.701Z,79.06
2022-10-23T00:27:08.974Z,79.03
2022-10-23T00:27:20.895Z,79.15
2022-10-23T00:27:33.385Z,79.54
2022-10-23T00:27:45.454Z,79.07
2022-10-23T00:27:57.369Z,79.79
2022-10-23T00:28:09.344Z,79.18
2022-10-23T00:28:21.393Z,79.41
2022-10-23T00:28:34.082Z,79.40
2022-10-23T00:28:50.093Z,79.18
2022-10-23T00:29:02.076Z,79.19
2022-10-23T00:29:13.973Z,79.29
2022-10-23T00:29:28.037Z,78.83
2022-10-23T00:29:39.929Z,79.06
2022-10-23T00:29:51.877Z,79.14
2022-10-23T00:30:04.981Z,79.20
2022-10-23T00:30:16.886Z,79.37
2022-10-23T00:30:28.804Z,79.44
2022-10-23T00:30:40.808Z,79.01
2022-10-23T00:30:52.795Z,79.29
2022-10-23T00:31:05.913Z,79.39
2022-10-23T00:31:19.836Z,79.53
2022-10-23T00:31:32.290Z,79.44
2022-10-23T00:31:44.160Z,79.50
2022-10-23T00:31:56.105Z,79.24
2022-10-23T00:32:08.006Z,79.42
2022-10-23T00:32:19.962Z,79.53
2022-10-23T00:32:50.452Z,79.14
2022-10-23T00:33:02.359Z,79.64
2022-10-23T00:33:17.342Z,79.52
2022-10-23T00:33:29.437Z,79.64
2022-10-23T00:33:42.708Z,79.69
2022-10-23T00:33:57.375Z,79.41
2022-10-23T00:34:09.346Z,79.04
2022-10-23T00:34:23.720Z,79.34
2022-10-23T00:34:35.698Z,79.15
2022-10-23T00:34:50.525Z,79.22
2022-10-23T00:35:05.363Z,79.08
2022-10-23T00:35:20.290Z,78.81
2022-10-23T00:35:34.703Z,78.80
2022-10-23T00:35:49.749Z,79.22
2022-10-23T00:36:08.166Z,78.93
2022-10-23T00:36:21.862Z,79.06
2022-10-23T00:36:34.331Z,78.99
2022-10-23T00:36:46.262Z,78.81
2022-10-23T00:36:58.204Z,78.95
2022-10-23T00:37:13.217Z,78.92
2022-10-23T00:37:25.224Z,78.85
2022-10-23T00:37:37.170Z,78.85
2022-10-23T00:37:52.227Z,79.02
2022-10-23T00:38:07.218Z,78.78
2022-10-23T00:38:19.335Z,78.56
2022-10-23T00:38:31.240Z,78.72
2022-10-23T00:38:43.838Z,78.73
2022-10-23T00:38:55.795Z,78.42
2022-10-23T00:39:07.844Z,78.43
2022-10-23T00:39:22.514Z,77.93
2022-10-23T00:39:34.530Z,78.45
2022-10-23T00:39:50.930Z,78.77
2022-10-23T00:40:04.961Z,78.86
2022-10-23T00:40:17.022Z,78.69
2022-10-23T00:40:28.941Z,78.71
2022-10-23T00:40:42.248Z,78.46
2022-10-23T00:40:54.232Z,78.60
2022-10-23T00:41:08.342Z,78.91
2022-10-23T00:41:28.483Z,78.57
2022-10-23T00:41:40.487Z,78.60
2022-10-23T00:41:52.740Z,78.81
2022-10-23T00:42:04.751Z,78.80
2022-10-23T00:42:18.365Z,78.99
2022-10-23T00:42:30.318Z,78.74
2022-10-23T00:42:42.632Z,78.97
2022-10-23T00:42:54.674Z,78.91
2022-10-23T00:43:07.183Z,78.73
2022-10-23T00:43:21.231Z,78.82
2022-10-23T00:43:33.924Z,79.02
2022-10-23T00:44:03.238Z,78.95
2022-10-23T00:44:17.612Z,78.91
2022-10-23T00:44:29.448Z,78.83
2022-10-23T00:44:41.306Z,78.67
2022-10-23T00:44:53.247Z,78.96
2022-10-23T00:45:25.559Z,78.81
2022-10-23T00:45:37.470Z,78.76
2022-10-23T00:45:49.553Z,78.62
2022-10-23T00:46:02.041Z,78.82
2022-10-23T00:46:13.995Z,78.78
2022-10-23T00:46:26.140Z,78.66
2022-10-23T00:46:39.253Z,78.62
2022-10-23T00:46:51.244Z,78.71
2022-10-23T00:47:03.209Z,78.67
2022-10-23T00:47:15.386Z,78.97
2022-10-23T00:47:27.358Z,78.88
2022-10-23T00:47:42.194Z,78.79
2022-10-23T00:47:55.224Z,79.00
2022-10-23T00:48:07.143Z,78.86
2022-10-23T00:48:19.940Z,78.94
2022-10-23T00:48:31.891Z,78.76
2022-10-23T00:48:43.894Z,78.96
2022-10-23T00:48:57.048Z,79.22
2022-10-23T00:49:09.672Z,79.11
2022-10-23T00:49:22.979Z,79.38
2022-10-23T00:49:35.593Z,79.31
2022-10-23T00:49:48.087Z,79.24
2022-10-23T00:50:01.620Z,79.31
2022-10-23T00:50:13.821Z,79.45
2022-10-23T00:50:26.565Z,79.14
2022-10-23T00:50:38.705Z,79.25
2022-10-23T00:50:51.070Z,79.29
2022-10-23T00:51:03.105Z,79.21
2022-10-23T00:51:15.086Z,78.95
2022-10-23T00:51:31.389Z,79.07
2022-10-23T00:51:47.978Z,79.07
2022-10-23T00:52:04.481Z,78.86
2022-10-23T00:52:16.484Z,78.86
2022-10-23T00:52:29.755Z,79.14
2022-10-23T00:52:48.846Z,79.16
2022-10-23T00:53:03.203Z,79.02
2022-10-23T00:53:16.857Z,78.98
2022-10-23T00:53:29.040Z,79.20
2022-10-23T00:53:43.219Z,79.53
2022-10-23T00:54:06.710Z,79.26
2022-10-23T00:54:37.857Z,79.40
2022-10-23T00:54:49.938Z,79.27
2022-10-23T00:55:02.173Z,79.40
2022-10-23T00:55:15.383Z,79.29
2022-10-23T00:55:28.388Z,79.44
2022-10-23T00:55:46.798Z,79.42
2022-10-23T00:55:59.890Z,79.44
2022-10-23T00:56:11.866Z,79.54
2022-10-23T00:56:25.857Z,79.47
2022-10-23T00:56:41.871Z,79.19
2022-10-23T00:56:58.433Z,79.25
2022-10-23T00:57:15.363Z,79.40
2022-10-23T00:57:46.626Z,79.31
2022-10-23T00:57:59.032Z,79.10
2022-10-23T00:58:11.308Z,78.98
2022-10-23T00:58:23.258Z,79.19
2022-10-23T00:58:35.189Z,78.98
2022-10-23T00:58:47.160Z,78.60
2022-10-23T00:58:59.123Z,78.80
2022-10-23T00:59:11.529Z,78.95
2022-10-23T00:59:24.065Z,79.00
2022-10-23T00:59:36.149Z,78.96
2022-10-23T00:59:48.306Z,78.87
2022-10-23T01:00:00.310Z,78.92
2022-10-23T01:00:25.018Z,79.24
2022-10-23T01:00:45.614Z,78.82
2022-10-23T01:00:57.691Z,78.70
2022-10-23T01:01:18.303Z,79.06
2022-10-23T01:01:30.511Z,78.95
2022-10-23T01:01:42.775Z,79.00
2022-10-23T01:01:55.405Z,79.29
2022-10-23T01:02:08.086Z,78.97
2022-10-23T01:02:21.221Z,79.06
2022-10-23T01:02:33.439Z,79.18
2022-10-23T01:02:46.338Z,79.21
2022-10-23T01:02:58.732Z,79.17
2022-10-23T01:03:10.996Z,79.10
2022-10-23T01:03:27.499Z,79.44
2022-10-23T01:03:39.443Z,79.69
2022-10-23T01:03:52.005Z,79.66
2022-10-23T01:04:06.065Z,79.73
2022-10-23T01:04:18.845Z,79.51
2022-10-23T01:04:31.924Z,79.20
2022-10-23T01:04:44.399Z,79.33
2022-10-23T01:04:56.478Z,79.34
2022-10-23T01:05:09.050Z,79.29
2022-10-23T01:05:30.349Z,79.23
2022-10-23T01:05:54.297Z,79.29
2022-10-23T01:06:12.066Z,79.12
2022-10-23T01:06:38.470Z,79.07
2022-10-23T01:07:12.900Z,78.85
2022-10-23T01:07:37.123Z,78.78
2022-10-23T01:07:58.109Z,78.69
2022-10-23T01:08:29.803Z,78.81
2022-10-23T01:08:51.811Z,78.63
2022-10-23T01:09:48.622Z,78.80
2022-10-23T01:10:15.112Z,78.77
2022-10-23T01:10:50.039Z,78.97
2022-10-23T01:11:12.496Z,79.45
2022-10-23T01:11:33.377Z,79.66
2022-10-23T01:12:00.157Z,79.64
2022-10-23T01:12:40.055Z,79.68
2022-10-23T01:13:02.583Z,79.39
2022-10-23T01:13:23.766Z,79.18
2022-10-23T01:13:55.719Z,78.96
2022-10-23T01:14:37.869Z,79.21
2022-10-23T01:14:52.410Z,79.46
2022-10-23T01:15:32.061Z,79.49
2022-10-23T01:15:56.579Z,79.61
2022-10-23T01:16:11.039Z,79.66
2022-10-23T01:16:41.878Z,79.01
2022-10-23T01:17:24.301Z,79.77
2022-10-23T01:17:40.986Z,79.75
2022-10-23T01:18:04.902Z,79.65
2022-10-23T01:18:23.848Z,79.63
2022-10-23T01:18:46.888Z,79.54
2022-10-23T01:19:07.642Z,79.71
2022-10-23T01:19:42.722Z,80.22
2022-10-23T01:20:18.999Z,80.49
2022-10-23T01:20:36.651Z,80.41
2022-10-23T01:20:57.584Z,80.45
2022-10-23T01:21:15.849Z,80.45
2022-10-23T01:22:04.530Z,80.61
2022-10-23T01:22:48.177Z,80.86
2022-10-23T01:23:33.766Z,80.68
2022-10-23T01:23:54.460Z,80.37
2022-10-23T01:24:22.974Z,80.20
2022-10-23T01:24:59.564Z,80.58
2022-10-23T01:25:26.143Z,80.33
2022-10-23T01:25:56.795Z,80.29
2022-10-23T01:26:21.466Z,80.47
2022-10-23T01:26:45.292Z,80.31
2022-10-23T01:27:41.645Z,80.06
2022-10-23T01:28:01.639Z,80.08
2022-10-23T01:28:21.637Z,79.85
2022-10-23T01:28:36.329Z,79.76
2022-10-23T01:29:03.515Z,79.98
2022-10-23T01:29:20.079Z,79.92
2022-10-23T01:29:31.922Z,80.01
2022-10-23T01:29:49.667Z,79.96
2022-10-23T01:30:11.863Z,79.96
2022-10-23T01:30:23.898Z,79.97
2022-10-23T01:30:54.132Z,79.87
2022-10-23T01:31:12.108Z,79.78
2022-10-23T01:31:43.436Z,80.00
2022-10-23T01:32:12.962Z,79.75
2022-10-23T01:32:39.053Z,79.76
2022-10-23T01:33:00.576Z,79.17
2022-10-23T01:33:30.325Z,79.64
2022-10-23T01:33:49.032Z,79.56
2022-10-23T01:34:10.705Z,79.62
2022-10-23T01:34:33.691Z,79.67
2022-10-23T01:35:12.855Z,79.32
2022-10-23T01:35:37.771Z,79.20
2022-10-23T01:35:56.893Z,79.41
2022-10-23T01:36:14.327Z,79.28
2022-10-23T01:36:29.293Z,79.36
2022-10-23T01:36:46.832Z,79.36
2022-10-23T01:37:02.182Z,79.10
2022-10-23T01:37:19.840Z,79.80
2022-10-23T01:37:42.512Z,79.89
2022-10-23T01:37:58.034Z,79.93
2022-10-23T01:38:16.837Z,79.99
2022-10-23T01:38:41.777Z,79.67
2022-10-23T01:39:07.317Z,80.02
2022-10-23T01:39:25.399Z,79.88
2022-10-23T01:39:44.186Z,80.05
2022-10-23T01:40:02.961Z,80.09
2022-10-23T01:40:27.112Z,79.92
2022-10-23T01:40:55.630Z,80.25
2022-10-23T01:41:14.563Z,80.46
2022-10-23T01:41:32.615Z,80.38
2022-10-23T01:41:48.871Z,80.77
2022-10-23T01:42:19.004Z,80.78
2022-10-23T01:42:36.101Z,80.98
2022-10-23T01:42:53.077Z,81.23
2022-10-23T01:43:12.425Z,81.15
2022-10-23T01:43:30.202Z,81.56
2022-10-23T01:43:46.979Z,81.67
2022-10-23T01:44:16.062Z,81.44
2022-10-23T01:44:48.996Z,81.64
2022-10-23T01:45:16.082Z,81.77
2022-10-23T01:45:29.990Z,82.38
2022-10-23T01:45:53.242Z,82.20
2022-10-23T01:46:10.436Z,82.37
2022-10-23T01:46:24.959Z,82.16
2022-10-23T01:46:37.540Z,82.07
2022-10-23T01:46:52.586Z,82.02
2022-10-23T01:47:07.186Z,82.13
2022-10-23T01:47:23.667Z,81.97
2022-10-23T01:47:36.195Z,81.82
2022-10-23T01:47:49.527Z,81.85
2022-10-23T01:48:04.421Z,81.81
2022-10-23T01:48:21.536Z,81.73
2022-10-23T01:48:35.160Z,81.50
2022-10-23T01:48:52.573Z,81.87
2022-10-23T01:49:08.627Z,81.76
2022-10-23T01:49:22.735Z,81.82
2022-10-23T01:49:37.528Z,81.71
2022-10-23T01:49:51.441Z,81.84
2022-10-23T01:50:06.004Z,81.81
2022-10-23T01:50:20.459Z,81.52
2022-10-23T01:50:34.605Z,81.11
2022-10-23T01:50:47.034Z,81.01
2022-10-23T01:51:01.620Z,80.54
2022-10-23T01:51:15.546Z,80.91
2022-10-23T01:51:30.941Z,80.82
2022-10-23T01:51:48.773Z,80.81
2022-10-23T01:52:05.445Z,80.88
2022-10-23T01:52:19.847Z,80.81
2022-10-23T01:52:31.869Z,80.70
2022-10-23T01:52:43.955Z,80.46
2022-10-23T01:52:55.917Z,80.52
2022-10-23T01:53:08.145Z,80.33
2022-10-23T01:53:21.793Z,80.29
2022-10-23T01:53:38.422Z,80.04
2022-10-23T01:53:55.659Z,79.91
2022-10-23T01:54:12.384Z,80.10
2022-10-23T01:54:30.000Z,79.82
2022-10-23T01:54:44.949Z,79.88
2022-10-23T01:55:00.884Z,79.85
2022-10-23T01:55:13.974Z,79.68
2022-10-23T01:55:26.625Z,79.58
2022-10-23T01:55:59.144Z,79.30
2022-10-23T01:56:15.257Z,79.61
2022-10-23T01:56:30.931Z,79.74
2022-10-23T01:56:46.532Z,79.58
2022-10-23T01:56:59.297Z,79.80
2022-10-23T01:57:14.971Z,79.51
2022-10-23T01:57:31.234Z,79.47
2022-10-23T01:57:45.190Z,79.51
2022-10-23T01:57:58.617Z,79.62
2022-10-23T01:58:11.463Z,79.45
2022-10-23T01:58:26.389Z,79.39
2022-10-23T01:58:39.841Z,79.33
2022-10-23T01:58:55.317Z,79.33
2022-10-23T01:59:12.204Z,79.55
2022-10-23T01:59:36.740Z,79.54
2022-10-23T01:59:53.508Z,79.52
2022-10-23T02:00:11.873Z,79.62
2022-10-23T02:00:23.805Z,79.82
2022-10-23T02:00:39.809Z,79.59
2022-10-23T02:00:56.703Z,79.81
2022-10-23T02:01:11.487Z,79.67
2022-10-23T02:01:27.786Z,79.65
2022-10-23T02:01:44.243Z,79.38
2022-10-23T02:01:59.012Z,79.24
2022-10-23T02:02:13.400Z,79.26
2022-10-23T02:02:27.568Z,79.28
2022-10-23T02:02:43.517Z,79.31
2022-10-23T02:02:57.541Z,79.67
2022-10-23T02:03:10.559Z,79.63
2022-10-23T02:03:23.366Z,79.68
2022-10-23T02:03:37.277Z,79.59
2022-10-23T02:03:50.920Z,79.47
2022-10-23T02:04:07.038Z,79.34
2022-10-23T02:04:25.617Z,79.58
2022-10-23T02:04:42.261Z,79.51
2022-10-23T02:05:18.433Z,79.68
2022-10-23T02:05:31.220Z,79.44
2022-10-23T02:05:44.195Z,79.64
2022-10-23T02:05:56.186Z,79.81
2022-10-23T02:06:08.305Z,79.66
2022-10-23T02:06:20.359Z,79.96
2022-10-23T02:06:32.598Z,80.12
2022-10-23T02:06:44.495Z,80.18
2022-10-23T02:06:56.728Z,79.95
2022-10-23T02:07:08.987Z,80.16
2022-10-23T02:07:21.193Z,80.38
2022-10-23T02:07:34.177Z,79.83
2022-10-23T02:07:46.541Z,79.81
2022-10-23T02:08:00.553Z,79.80
2022-10-23T02:08:12.748Z,79.68
2022-10-23T02:08:25.788Z,79.62
2022-10-23T02:08:38.147Z,79.63
2022-10-23T02:08:50.628Z,79.42
2022-10-23T02:09:03.215Z,79.37
2022-10-23T02:09:15.540Z,79.25
2022-10-23T02:09:27.714Z,79.10
2022-10-23T02:09:39.976Z,79.19
2022-10-23T02:09:52.202Z,78.89
2022-10-23T02:10:06.247Z,79.08
2022-10-23T02:10:19.726Z,78.79
2022-10-23T02:10:57.155Z,79.07
2022-10-23T02:11:09.055Z,79.11
2022-10-23T02:11:21.777Z,78.92
2022-10-23T02:11:42.468Z,78.68
2022-10-23T02:12:02.726Z,78.93
2022-10-23T02:12:24.642Z,78.97
2022-10-23T02:13:01.000Z,78.76
2022-10-23T02:13:25.539Z,78.65
2022-10-23T02:13:37.435Z,78.51
2022-10-23T02:14:10.167Z,78.70
2022-10-23T02:14:35.319Z,79.39
2022-10-23T02:15:00.136Z,79.94
2022-10-23T02:15:26.628Z,79.86
2022-10-23T02:15:48.893Z,80.13
2022-10-23T02:16:20.021Z,80.40
2022-10-23T02:16:44.309Z,80.53
2022-10-23T02:17:06.471Z,80.95
2022-10-23T02:17:45.780Z,81.17
2022-10-23T02:18:29.918Z,81.21
2022-10-23T02:18:52.463Z,81.21
2022-10-23T02:19:24.785Z,81.02
2022-10-23T02:20:12.562Z,81.29
2022-10-23T02:20:27.517Z,81.46
2022-10-23T02:21:05.008Z,81.26
2022-10-23T02:21:23.272Z,81.12
2022-10-23T02:21:41.259Z,81.32
2022-10-23T02:21:59.027Z,81.32
2022-10-23T02:22:14.952Z,81.05
2022-10-23T02:22:35.178Z,81.04
2022-10-23T02:23:00.108Z,81.10
2022-10-23T02:23:20.947Z,80.99
2022-10-23T02:23:38.460Z,80.96
2022-10-23T02:24:02.989Z,80.63
2022-10-23T02:24:21.194Z,80.76
2022-10-23T02:24:39.417Z,80.79
2022-10-23T02:24:51.276Z,81.00
2022-10-23T02:25:11.237Z,81.31
2022-10-23T02:25:33.807Z,81.90
2022-10-23T02:25:57.270Z,81.81
2022-10-23T02:26:12.043Z,81.59
2022-10-23T02:26:29.793Z,81.58
2022-10-23T02:26:49.693Z,81.48
2022-10-23T02:27:05.357Z,81.90
2022-10-23T02:27:24.396Z,81.98
2022-10-23T02:27:44.950Z,82.16
2022-10-23T02:28:01.080Z,82.19
2022-10-23T02:28:17.907Z,82.28
2022-10-23T02:28:37.666Z,82.14
2022-10-23T02:28:53.665Z,81.86
2022-10-23T02:29:27.697Z,81.71
2022-10-23T02:29:51.832Z,82.00
2022-10-23T02:30:08.076Z,81.91
2022-10-23T02:30:20.536Z,81.82
2022-10-23T02:30:35.683Z,81.72
2022-10-23T02:30:50.403Z,81.63
2022-10-23T02:31:05.385Z,81.27
2022-10-23T02:31:21.443Z,81.43
2022-10-23T02:31:33.687Z,81.21
2022-10-23T02:31:45.907Z,81.56
2022-10-23T02:31:57.897Z,81.41
2022-10-23T02:32:11.287Z,81.71
2022-10-23T02:32:26.592Z,81.46
2022-10-23T02:32:44.951Z,81.29
2022-10-23T02:32:58.329Z,81.26
2022-10-23T02:33:12.268Z,81.57
2022-10-23T02:33:27.439Z,81.34
2022-10-23T02:33:39.692Z,80.91
2022-10-23T02:33:51.802Z,81.17
2022-10-23T02:34:04.130Z,81.26
2022-10-23T02:34:16.334Z,81.32
2022-10-23T02:34:28.457Z,81.24
2022-10-23T02:34:40.650Z,81.28
2022-10-23T02:34:52.943Z,81.29
2022-10-23T02:35:05.700Z,81.31
2022-10-23T02:35:20.056Z,81.08
2022-10-23T02:35:32.185Z,81.30
2022-10-23T02:35:45.014Z,81.27
2022-10-23T02:35:57.129Z,81.19
2022-10-23T02:36:09.526Z,81.30
2022-10-23T02:36:21.598Z,81.71
2022-10-23T02:36:33.644Z,81.45
2022-10-23T02:36:46.184Z,81.70
2022-10-23T02:36:58.201Z,81.50
2022-10-23T02:37:10.151Z,81.54
2022-10-23T02:37:34.415Z,81.39
2022-10-23T02:37:54.071Z,81.43
2022-10-23T02:38:29.730Z,81.55
2022-10-23T02:38:43.921Z,81.32
2022-10-23T02:38:55.921Z,81.37
2022-10-23T02:39:07.884Z,81.58
2022-10-23T02:39:24.488Z,81.56
2022-10-23T02:39:36.595Z,81.72
2022-10-23T02:39:49.192Z,81.62
2022-10-23T02:40:01.261Z,81.52
2022-10-23T02:40:13.267Z,81.50
2022-10-23T02:40:34.300Z,81.26
2022-10-23T02:40:47.265Z,81.33
2022-10-23T02:41:19.072Z,81.09
2022-10-23T02:41:41.071Z,80.99
2022-10-23T02:42:00.214Z,80.96
2022-10-23T02:42:34.063Z,80.64
2022-10-23T02:43:00.118Z,80.81
2022-10-23T02:43:22.982Z,80.52
2022-10-23T02:43:43.559Z,80.67
2022-10-23T02:44:25.226Z,81.00
2022-10-23T02:44:55.382Z,81.92
2022-10-23T02:45:17.630Z,81.73
2022-10-23T02:46:20.226Z,81.33
2022-10-23T02:46:45.591Z,81.12
2022-10-23T02:47:10.573Z,80.96
2022-10-23T02:47:25.315Z,80.91
2022-10-23T02:48:01.786Z,80.75
2022-10-23T02:48:25.585Z,80.84
2022-10-23T02:48:46.275Z,80.84
2022-10-23T02:49:11.994Z,80.53
2022-10-23T02:49:26.172Z,80.56
2022-10-23T02:49:49.164Z,80.73
2022-10-23T02:50:03.993Z,80.70
2022-10-23T02:50:24.450Z,80.72
2022-10-23T02:50:54.854Z,80.73
2022-10-23T02:51:18.136Z,80.57
2022-10-23T02:51:49.954Z,80.97
2022-10-23T02:52:24.153Z,80.82
2022-10-23T02:53:13.291Z,80.61
2022-10-23T02:53:53.667Z,80.50
2022-10-23T02:54:08.417Z,80.72
2022-10-23T02:54:29.403Z,80.94
2022-10-23T02:55:07.295Z,81.65
2022-10-23T02:55:41.419Z,82.09
2022-10-23T02:56:11.914Z,81.94
2022-10-23T02:56:44.256Z,81.73
2022-10-23T02:57:11.210Z,81.40
2022-10-23T02:57:43.041Z,81.49
2022-10-23T02:58:04.123Z,81.80
2022-10-23T02:58:40.684Z,81.98
2022-10-23T02:59:21.388Z,82.22
2022-10-23T02:59:59.210Z,82.28
2022-10-23T03:00:20.000Z,81.87
2022-10-23T03:00:34.407Z,81.71
2022-10-23T03:00:52.558Z,81.54
2022-10-23T03:01:11.446Z,81.59
2022-10-23T03:01:29.157Z,81.38
2022-10-23T03:01:49.646Z,82.02
2022-10-23T03:02:11.894Z,81.78
2022-10-23T03:02:36.485Z,82.24
2022-10-23T03:03:15.361Z,82.15
2022-10-23T03:03:32.733Z,82.31
2022-10-23T03:04:00.669Z,82.20
2022-10-23T03:04:14.892Z,82.17
2022-10-23T03:04:28.561Z,82.34
2022-10-23T03:04:42.835Z,82.48
2022-10-23T03:04:56.464Z,82.31
2022-10-23T03:05:12.459Z,82.39
2022-10-23T03:05:29.823Z,82.63
2022-10-23T03:05:44.806Z,82.68
2022-10-23T03:05:56.897Z,82.42
2022-10-23T03:06:09.067Z,82.56
2022-10-23T03:06:22.776Z,82.67
2022-10-23T03:06:34.846Z,82.71
2022-10-23T03:06:47.622Z,82.28
2022-10-23T03:06:59.788Z,82.54
2022-10-23T03:07:13.953Z,82.82
2022-10-23T03:07:26.514Z,83.07
2022-10-23T03:07:40.299Z,82.98
2022-10-23T03:07:52.870Z,82.43
2022-10-23T03:08:09.862Z,82.59
2022-10-23T03:08:22.463Z,82.62
2022-10-23T03:08:45.202Z,82.47
2022-10-23T03:09:04.470Z,82.51
2022-10-23T03:09:16.498Z,82.30
2022-10-23T03:09:28.595Z,82.15
2022-10-23T03:09:40.945Z,82.20
2022-10-23T03:09:52.953Z,82.44
2022-10-23T03:10:05.524Z,82.29
2022-10-23T03:10:17.753Z,82.34
2022-10-23T03:10:29.722Z,82.32
2022-10-23T03:10:42.701Z,82.63
2022-10-23T03:10:54.738Z,82.09
2022-10-23T03:11:06.655Z,82.49
2022-10-23T03:11:18.585Z,82.69
2022-10-23T03:11:30.674Z,82.46
2022-10-23T03:11:42.671Z,82.36
2022-10-23T03:11:54.734Z,82.81
2022-10-23T03:12:06.818Z,82.88
2022-10-23T03:12:18.807Z,82.39
2022-10-23T03:12:30.942Z,82.32
2022-10-23T03:12:43.344Z,82.40
2022-10-23T03:12:55.487Z,82.54
2022-10-23T03:13:09.364Z,82.33
2022-10-23T03:13:21.541Z,82.48
2022-10-23T03:13:33.470Z,82.73
2022-10-23T03:13:45.561Z,83.05
2022-10-23T03:13:57.585Z,83.08
2022-10-23T03:14:13.720Z,83.03
2022-10-23T03:14:25.735Z,83.13
2022-10-23T03:14:37.752Z,83.20
2022-10-23T03:14:49.957Z,83.00
2022-10-23T03:15:02.255Z,83.02
2022-10-23T03:15:15.292Z,82.65
2022-10-23T03:15:27.274Z,82.97
2022-10-23T03:15:39.262Z,82.93
2022-10-23T03:15:51.252Z,82.64
2022-10-23T03:16:03.233Z,82.97
2022-10-23T03:16:15.495Z,83.12
2022-10-23T03:16:27.603Z,83.15
2022-10-23T03:16:39.679Z,83.10
2022-10-23T03:16:51.584Z,83.32
2022-10-23T03:17:04.395Z,83.63
2022-10-23T03:17:16.441Z,83.35
2022-10-23T03:17:28.432Z,83.50
2022-10-23T03:17:40.464Z,83.47
2022-10-23T03:17:52.396Z,83.54
2022-10-23T03:18:04.349Z,83.88
2022-10-23T03:18:16.321Z,83.60
2022-10-23T03:18:28.405Z,83.71
2022-10-23T03:18:40.403Z,83.80
2022-10-23T03:18:52.381Z,83.43
2022-10-23T03:19:04.478Z,83.63
2022-10-23T03:19:16.419Z,82.94
2022-10-23T03:19:28.377Z,82.95
2022-10-23T03:19:40.301Z,82.96
2022-10-23T03:19:52.318Z,82.99
2022-10-23T03:20:06.035Z,82.82
2022-10-23T03:20:18.444Z,82.91
2022-10-23T03:20:30.437Z,82.77
2022-10-23T03:20:42.344Z,82.61
2022-10-23T03:20:54.269Z,82.53
2022-10-23T03:21:06.279Z,82.64
2022-10-23T03:21:18.378Z,82.58
2022-10-23T03:21:30.322Z,82.60
2022-10-23T03:21:42.289Z,82.49
2022-10-23T03:21:54.945Z,82.52
2022-10-23T03:22:06.938Z,82.54
2022-10-23T03:22:18.901Z,82.52
2022-10-23T03:22:31.023Z,82.65
2022-10-23T03:22:43.203Z,82.46
2022-10-23T03:22:55.386Z,82.39
2022-10-23T03:23:07.302Z,82.46
2022-10-23T03:23:19.276Z,82.29
2022-10-23T03:23:31.190Z,82.63
2022-10-23T03:23:43.146Z,82.74
2022-10-23T03:23:55.153Z,82.92
2022-10-23T03:24:07.277Z,82.69
2022-10-23T03:24:19.296Z,82.83
2022-10-23T03:24:31.237Z,82.41
2022-10-23T03:24:43.247Z,82.52
2022-10-23T03:24:55.189Z,82.65
2022-10-23T03:25:07.693Z,82.54
2022-10-23T03:25:19.646Z,82.27
2022-10-23T03:25:31.582Z,82.22
2022-10-23T03:25:43.559Z,82.20
2022-10-23T03:25:56.463Z,82.48
2022-10-23T03:26:08.444Z,82.48
2022-10-23T03:26:20.682Z,82.59
2022-10-23T03:26:32.623Z,82.74
2022-10-23T03:26:44.635Z,82.78
2022-10-23T03:26:56.690Z,82.59
2022-10-23T03:27:08.771Z,82.62
2022-10-23T03:27:20.772Z,82.68
2022-10-23T03:27:33.123Z,82.44
2022-10-23T03:27:45.046Z,82.46
2022-10-23T03:27:57.008Z,82.64
2022-10-23T03:28:08.911Z,82.72
2022-10-23T03:28:20.856Z,82.48
2022-10-23T03:28:32.840Z,82.60
2022-10-23T03:28:44.792Z,82.23
2022-10-23T03:28:56.700Z,82.24
2022-10-23T03:29:08.619Z,82.44
2022-10-23T03:29:20.815Z,82.59
2022-10-23T03:29:32.829Z,82.29
2022-10-23T03:29:44.763Z,82.66
2022-10-23T03:29:56.777Z,82.80
2022-10-23T03:30:09.500Z,83.12
2022-10-23T03:30:21.610Z,83.06
2022-10-23T03:30:33.549Z,83.09
2022-10-23T03:30:45.520Z,82.92
2022-10-23T03:30:57.504Z,82.99
2022-10-23T03:31:09.434Z,82.73
2022-10-23T03:31:21.394Z,82.67
2022-10-23T03:31:33.297Z,82.77
2022-10-23T03:31:45.285Z,82.96
2022-10-23T03:31:57.196Z,82.80
2022-10-23T03:32:09.366Z,82.62
2022-10-23T03:32:21.330Z,82.46
2022-10-23T03:32:33.552Z,82.37